sensor_id;sensor_type;location;lat;lon;timestamp;pressure;altitude;pressure_sealevel;temperature;humidity
10958;BME280;5531;42.570;23.676;2023-02-28T00:01:47;92378.69;;;5.32;100.00
10958;BME280;5531;42.570;23.676;2023-02-28T00:04:16;92381.91;;;5.26;100.00
10958;BME280;5531;42.570;23.676;2023-02-28T00:06:45;92380.25;;;5.17;100.00
10958;BME280;5531;42.570;23.676;2023-02-28T00:09:14;92389.66;;;5.18;100.00
10958;BME280;5531;42.570;23.676;2023-02-28T00:11:43;92393.72;;;5.12;100.00
10958;BME280;5531;42.570;23.676;2023-02-28T00:14:12;92393.56;;;5.13;100.00
10958;BME280;5531;42.570;23.676;2023-02-28T00:16:44;92407.19;;;5.16;100.00
10958;BME280;5531;42.570;23.676;2023-02-28T00:19:13;92394.34;;;5.14;100.00
10958;BME280;5531;42.570;23.676;2023-02-28T00:21:42;92390.28;;;5.11;100.00
10958;BME280;5531;42.570;23.676;2023-02-28T00:24:11;92383.31;;;5.12;100.00
10958;BME280;5531;42.570;23.676;2023-02-28T00:26:40;92384.72;;;5.06;100.00
10958;BME280;5531;42.570;23.676;2023-02-28T00:29:09;92381.53;;;5.12;100.00
10958;BME280;5531;42.570;23.676;2023-02-28T00:31:38;92380.63;;;5.30;100.00
10958;BME280;5531;42.570;23.676;2023-02-28T00:34:10;92374.03;;;5.44;100.00
10958;BME280;5531;42.570;23.676;2023-02-28T00:36:39;92380.59;;;5.64;100.00
10958;BME280;5531;42.570;23.676;2023-02-28T00:39:12;92378.34;;;5.78;100.00
10958;BME280;5531;42.570;23.676;2023-02-28T00:41:41;92376.59;;;5.86;100.00
10958;BME280;5531;42.570;23.676;2023-02-28T00:44:10;92375.13;;;5.76;100.00
10958;BME280;5531;42.570;23.676;2023-02-28T00:46:39;92360.97;;;5.78;100.00
10958;BME280;5531;42.570;23.676;2023-02-28T00:49:11;92355.91;;;5.77;100.00
10958;BME280;5531;42.570;23.676;2023-02-28T00:51:40;92362.75;;;5.78;100.00
10958;BME280;5531;42.570;23.676;2023-02-28T00:54:09;92360.63;;;5.73;100.00
10958;BME280;5531;42.570;23.676;2023-02-28T00:56:38;92370.41;;;5.79;100.00
10958;BME280;5531;42.570;23.676;2023-02-28T00:59:07;92375.09;;;5.67;100.00
10958;BME280;5531;42.570;23.676;2023-02-28T01:01:36;92370.38;;;5.71;100.00
10958;BME280;5531;42.570;23.676;2023-02-28T01:04:06;92371.03;;;5.73;100.00
10958;BME280;5531;42.570;23.676;2023-02-28T01:06:37;92376.22;;;5.73;100.00
10958;BME280;5531;42.570;23.676;2023-02-28T01:09:07;92375.44;;;5.73;100.00
10958;BME280;5531;42.570;23.676;2023-02-28T01:11:36;92390.53;;;5.69;100.00
10958;BME280;5531;42.570;23.676;2023-02-28T01:14:08;92381.53;;;5.55;100.00
10958;BME280;5531;42.570;23.676;2023-02-28T01:16:37;92376.34;;;5.55;100.00
10958;BME280;5531;42.570;23.676;2023-02-28T01:19:06;92371.44;;;5.52;100.00
10958;BME280;5531;42.570;23.676;2023-02-28T01:21:38;92369.53;;;5.54;100.00
10958;BME280;5531;42.570;23.676;2023-02-28T01:24:07;92355.41;;;5.57;100.00
10958;BME280;5531;42.570;23.676;2023-02-28T01:26:36;92365.44;;;5.51;100.00
10958;BME280;5531;42.570;23.676;2023-02-28T01:29:05;92357.97;;;5.48;100.00
10958;BME280;5531;42.570;23.676;2023-02-28T01:31:34;92357.09;;;5.31;100.00
10958;BME280;5531;42.570;23.676;2023-02-28T01:34:04;92359.03;;;5.29;100.00
10958;BME280;5531;42.570;23.676;2023-02-28T01:36:33;92357.28;;;5.38;100.00
10958;BME280;5531;42.570;23.676;2023-02-28T01:39:04;92349.50;;;5.38;100.00
10958;BME280;5531;42.570;23.676;2023-02-28T01:41:34;92350.31;;;5.39;100.00
10958;BME280;5531;42.570;23.676;2023-02-28T01:44:05;92355.78;;;5.27;100.00
10958;BME280;5531;42.570;23.676;2023-02-28T01:46:35;92349.44;;;5.22;100.00
10958;BME280;5531;42.570;23.676;2023-02-28T01:49:09;92351.72;;;5.25;100.00
10958;BME280;5531;42.570;23.676;2023-02-28T01:51:41;92354.47;;;5.23;100.00
10958;BME280;5531;42.570;23.676;2023-02-28T01:54:22;92369.47;;;5.03;100.00
10958;BME280;5531;42.570;23.676;2023-02-28T01:56:54;92369.78;;;4.74;100.00
10958;BME280;5531;42.570;23.676;2023-02-28T01:59:28;92373.50;;;4.71;100.00
10958;BME280;5531;42.570;23.676;2023-02-28T02:01:58;92376.25;;;4.70;100.00
10958;BME280;5531;42.570;23.676;2023-02-28T02:04:34;92374.22;;;4.55;100.00
10958;BME280;5531;42.570;23.676;2023-02-28T02:07:06;92374.84;;;4.57;100.00
10958;BME280;5531;42.570;23.676;2023-02-28T02:09:38;92370.59;;;4.48;100.00
10958;BME280;5531;42.570;23.676;2023-02-28T02:12:15;92374.16;;;4.47;100.00
10958;BME280;5531;42.570;23.676;2023-02-28T02:14:58;92376.88;;;4.46;100.00
10958;BME280;5531;42.570;23.676;2023-02-28T02:17:34;92371.09;;;4.52;100.00
10958;BME280;5531;42.570;23.676;2023-02-28T02:20:37;92374.34;;;4.54;100.00
10958;BME280;5531;42.570;23.676;2023-02-28T02:26:28;92378.19;;;4.68;100.00
10958;BME280;5531;42.570;23.676;2023-02-28T02:29:21;92380.88;;;4.84;100.00
10958;BME280;5531;42.570;23.676;2023-02-28T02:35:03;92373.44;;;5.16;100.00
10958;BME280;5531;42.570;23.676;2023-02-28T02:37:41;92384.44;;;5.09;100.00
10958;BME280;5531;42.570;23.676;2023-02-28T02:40:17;92384.28;;;5.11;100.00
10958;BME280;5531;42.570;23.676;2023-02-28T02:42:51;92396.03;;;5.23;100.00
10958;BME280;5531;42.570;23.676;2023-02-28T02:45:25;92395.34;;;5.21;100.00
10958;BME280;5531;42.570;23.676;2023-02-28T02:48:03;92391.38;;;5.01;100.00
10958;BME280;5531;42.570;23.676;2023-02-28T02:50:38;92391.31;;;4.92;100.00
10958;BME280;5531;42.570;23.676;2023-02-28T02:53:09;92395.53;;;4.93;100.00
10958;BME280;5531;42.570;23.676;2023-02-28T02:55:42;92392.22;;;4.83;100.00
10958;BME280;5531;42.570;23.676;2023-02-28T02:58:15;92392.22;;;4.83;100.00
10958;BME280;5531;42.570;23.676;2023-02-28T03:00:48;92410.00;;;4.70;100.00
10958;BME280;5531;42.570;23.676;2023-02-28T03:03:19;92409.69;;;4.73;100.00
10958;BME280;5531;42.570;23.676;2023-02-28T03:05:59;92409.38;;;4.76;100.00
10958;BME280;5531;42.570;23.676;2023-02-28T03:08:31;92409.78;;;4.63;100.00
10958;BME280;5531;42.570;23.676;2023-02-28T03:11:04;92422.31;;;4.32;100.00
10958;BME280;5531;42.570;23.676;2023-02-28T03:13:53;92422.09;;;4.07;100.00
10958;BME280;5531;42.570;23.676;2023-02-28T03:16:32;92425.59;;;3.98;100.00
10958;BME280;5531;42.570;23.676;2023-02-28T03:19:23;92438.47;;;3.90;100.00
10958;BME280;5531;42.570;23.676;2023-02-28T03:22:11;92426.47;;;3.89;100.00
10958;BME280;5531;42.570;23.676;2023-02-28T03:24:48;92433.63;;;3.77;100.00
10958;BME280;5531;42.570;23.676;2023-02-28T03:27:24;92430.53;;;3.73;100.00
10958;BME280;5531;42.570;23.676;2023-02-28T03:30:00;92433.97;;;3.64;100.00
10958;BME280;5531;42.570;23.676;2023-02-28T03:32:34;92442.69;;;3.63;100.00
10958;BME280;5531;42.570;23.676;2023-02-28T03:35:09;92440.19;;;3.71;100.00
10958;BME280;5531;42.570;23.676;2023-02-28T03:37:45;92444.44;;;3.72;100.00
10958;BME280;5531;42.570;23.676;2023-02-28T03:40:17;92446.88;;;3.74;100.00
10958;BME280;5531;42.570;23.676;2023-02-28T03:42:50;92440.72;;;3.75;100.00
10958;BME280;5531;42.570;23.676;2023-02-28T03:45:24;92432.28;;;3.73;100.00
10958;BME280;5531;42.570;23.676;2023-02-28T03:47:58;92437.19;;;3.76;100.00
10958;BME280;5531;42.570;23.676;2023-02-28T03:50:34;92430.94;;;3.69;100.00
10958;BME280;5531;42.570;23.676;2023-02-28T03:53:11;92442.66;;;3.73;100.00
10958;BME280;5531;42.570;23.676;2023-02-28T03:55:44;92446.06;;;3.73;100.00
10958;BME280;5531;42.570;23.676;2023-02-28T03:58:25;92454.59;;;3.83;100.00
10958;BME280;5531;42.570;23.676;2023-02-28T04:01:02;92458.31;;;3.99;100.00
10958;BME280;5531;42.570;23.676;2023-02-28T04:03:35;92449.22;;;4.13;100.00
10958;BME280;5531;42.570;23.676;2023-02-28T04:06:05;92452.72;;;4.21;100.00
10958;BME280;5531;42.570;23.676;2023-02-28T04:08:38;92454.78;;;4.36;100.00
10958;BME280;5531;42.570;23.676;2023-02-28T04:11:17;92455.22;;;4.49;100.00
10958;BME280;5531;42.570;23.676;2023-02-28T04:13:47;92452.69;;;4.57;100.00
10958;BME280;5531;42.570;23.676;2023-02-28T04:16:17;92454.69;;;4.64;100.00
10958;BME280;5531;42.570;23.676;2023-02-28T04:18:47;92453.81;;;4.73;100.00
10958;BME280;5531;42.570;23.676;2023-02-28T04:21:16;92450.75;;;4.77;100.00
10958;BME280;5531;42.570;23.676;2023-02-28T04:23:49;92451.28;;;4.81;100.00
10958;BME280;5531;42.570;23.676;2023-02-28T04:26:18;92456.44;;;4.99;100.00
10958;BME280;5531;42.570;23.676;2023-02-28T04:28:47;92460.03;;;5.06;100.00
10958;BME280;5531;42.570;23.676;2023-02-28T04:31:16;92451.13;;;5.09;100.00
10958;BME280;5531;42.570;23.676;2023-02-28T04:33:45;92451.78;;;5.11;100.00
10958;BME280;5531;42.570;23.676;2023-02-28T04:36:14;92454.88;;;5.14;100.00
10958;BME280;5531;42.570;23.676;2023-02-28T04:38:44;92458.06;;;5.26;100.00
10958;BME280;5531;42.570;23.676;2023-02-28T04:41:16;92467.16;;;5.30;100.00
10958;BME280;5531;42.570;23.676;2023-02-28T04:43:45;92457.94;;;5.36;100.00
10958;BME280;5531;42.570;23.676;2023-02-28T04:46:14;92461.50;;;5.35;100.00
10958;BME280;5531;42.570;23.676;2023-02-28T04:48:44;92465.25;;;5.41;100.00
10958;BME280;5531;42.570;23.676;2023-02-28T04:51:15;92465.47;;;5.47;100.00
10958;BME280;5531;42.570;23.676;2023-02-28T04:53:44;92461.41;;;5.45;100.00
10958;BME280;5531;42.570;23.676;2023-02-28T04:56:17;92465.78;;;5.44;100.00
10958;BME280;5531;42.570;23.676;2023-02-28T04:58:46;92458.03;;;5.53;100.00
10958;BME280;5531;42.570;23.676;2023-02-28T05:01:22;92463.28;;;5.61;100.00
10958;BME280;5531;42.570;23.676;2023-02-28T05:03:52;92471.09;;;5.69;100.00
10958;BME280;5531;42.570;23.676;2023-02-28T05:06:22;92469.97;;;5.72;100.00
10958;BME280;5531;42.570;23.676;2023-02-28T05:08:52;92472.09;;;5.76;100.00
10958;BME280;5531;42.570;23.676;2023-02-28T05:11:26;92463.84;;;5.81;100.00
10958;BME280;5531;42.570;23.676;2023-02-28T05:13:59;92466.25;;;5.74;100.00
10958;BME280;5531;42.570;23.676;2023-02-28T05:16:28;92471.59;;;5.73;100.00
10958;BME280;5531;42.570;23.676;2023-02-28T05:18:57;92468.84;;;5.74;100.00
10958;BME280;5531;42.570;23.676;2023-02-28T05:21:29;92473.38;;;5.64;100.00
10958;BME280;5531;42.570;23.676;2023-02-28T05:24:00;92470.25;;;5.60;100.00
10958;BME280;5531;42.570;23.676;2023-02-28T05:26:35;92475.13;;;5.63;100.00
10958;BME280;5531;42.570;23.676;2023-02-28T05:29:04;92475.00;;;5.73;100.00
10958;BME280;5531;42.570;23.676;2023-02-28T05:31:34;92477.44;;;5.75;100.00
10958;BME280;5531;42.570;23.676;2023-02-28T05:34:03;92480.81;;;5.67;100.00
10958;BME280;5531;42.570;23.676;2023-02-28T05:36:32;92487.97;;;5.65;100.00
10958;BME280;5531;42.570;23.676;2023-02-28T05:39:02;92491.88;;;5.61;100.00
10958;BME280;5531;42.570;23.676;2023-02-28T05:41:33;92502.16;;;5.71;100.00
10958;BME280;5531;42.570;23.676;2023-02-28T05:44:02;92498.88;;;5.68;100.00
10958;BME280;5531;42.570;23.676;2023-02-28T05:46:31;92499.06;;;5.75;100.00
10958;BME280;5531;42.570;23.676;2023-02-28T05:49:01;92503.16;;;5.78;100.00
10958;BME280;5531;42.570;23.676;2023-02-28T05:51:30;92507.75;;;5.92;100.00
10958;BME280;5531;42.570;23.676;2023-02-28T05:54:00;92503.91;;;6.04;100.00
10958;BME280;5531;42.570;23.676;2023-02-28T05:56:29;92505.75;;;6.12;100.00
10958;BME280;5531;42.570;23.676;2023-02-28T05:59:02;92499.91;;;6.18;100.00
10958;BME280;5531;42.570;23.676;2023-02-28T06:01:34;92508.84;;;6.16;100.00
10958;BME280;5531;42.570;23.676;2023-02-28T06:04:04;92510.47;;;6.17;100.00
10958;BME280;5531;42.570;23.676;2023-02-28T06:06:34;92517.34;;;6.26;100.00
10958;BME280;5531;42.570;23.676;2023-02-28T06:09:03;92517.78;;;6.13;100.00
10958;BME280;5531;42.570;23.676;2023-02-28T06:11:33;92518.91;;;6.11;100.00
10958;BME280;5531;42.570;23.676;2023-02-28T06:14:05;92517.97;;;6.20;100.00
10958;BME280;5531;42.570;23.676;2023-02-28T06:16:34;92521.19;;;6.14;100.00
10958;BME280;5531;42.570;23.676;2023-02-28T06:19:04;92526.84;;;6.01;100.00
10958;BME280;5531;42.570;23.676;2023-02-28T06:21:34;92526.69;;;6.02;100.00
10958;BME280;5531;42.570;23.676;2023-02-28T06:24:03;92521.25;;;5.96;100.00
10958;BME280;5531;42.570;23.676;2023-02-28T06:26:32;92526.91;;;5.91;100.00
10958;BME280;5531;42.570;23.676;2023-02-28T06:29:04;92529.53;;;5.91;100.00
10958;BME280;5531;42.570;23.676;2023-02-28T06:31:33;92532.44;;;5.88;100.00
10958;BME280;5531;42.570;23.676;2023-02-28T06:34:02;92536.38;;;5.92;100.00
10958;BME280;5531;42.570;23.676;2023-02-28T06:36:31;92531.16;;;5.92;100.00
10958;BME280;5531;42.570;23.676;2023-02-28T06:39:00;92534.88;;;5.90;100.00
10958;BME280;5531;42.570;23.676;2023-02-28T06:41:29;92536.53;;;5.91;100.00
10958;BME280;5531;42.570;23.676;2023-02-28T06:44:10;92546.91;;;5.91;100.00
10958;BME280;5531;42.570;23.676;2023-02-28T06:46:40;92542.38;;;5.93;100.00
10958;BME280;5531;42.570;23.676;2023-02-28T06:49:10;92549.97;;;6.12;100.00
10958;BME280;5531;42.570;23.676;2023-02-28T06:51:41;92547.03;;;6.07;100.00
10958;BME280;5531;42.570;23.676;2023-02-28T06:54:11;92549.81;;;6.14;100.00
10958;BME280;5531;42.570;23.676;2023-02-28T06:56:41;92552.13;;;6.25;100.00
10958;BME280;5531;42.570;23.676;2023-02-28T06:59:12;92561.88;;;6.23;100.00
10958;BME280;5531;42.570;23.676;2023-02-28T07:01:41;92551.16;;;6.18;100.00
10958;BME280;5531;42.570;23.676;2023-02-28T07:04:11;92557.66;;;6.22;100.00
10958;BME280;5531;42.570;23.676;2023-02-28T07:06:40;92564.63;;;6.13;100.00
10958;BME280;5531;42.570;23.676;2023-02-28T07:09:09;92559.56;;;6.12;100.00
10958;BME280;5531;42.570;23.676;2023-02-28T07:11:40;92563.63;;;6.14;100.00
10958;BME280;5531;42.570;23.676;2023-02-28T07:14:12;92554.88;;;6.23;100.00
10958;BME280;5531;42.570;23.676;2023-02-28T07:16:41;92556.97;;;6.12;100.00
10958;BME280;5531;42.570;23.676;2023-02-28T07:19:11;92565.72;;;6.11;100.00
10958;BME280;5531;42.570;23.676;2023-02-28T07:21:40;92564.75;;;6.12;100.00
10958;BME280;5531;42.570;23.676;2023-02-28T07:24:09;92565.09;;;6.17;100.00
10958;BME280;5531;42.570;23.676;2023-02-28T07:26:41;92575.31;;;6.10;100.00
10958;BME280;5531;42.570;23.676;2023-02-28T07:29:13;92570.47;;;6.15;100.00
10958;BME280;5531;42.570;23.676;2023-02-28T07:31:42;92565.59;;;6.20;100.00
10958;BME280;5531;42.570;23.676;2023-02-28T07:34:12;92567.72;;;6.17;100.00
10958;BME280;5531;42.570;23.676;2023-02-28T07:36:41;92575.09;;;6.30;100.00
10958;BME280;5531;42.570;23.676;2023-02-28T07:39:10;92574.28;;;6.29;100.00
10958;BME280;5531;42.570;23.676;2023-02-28T07:41:39;92573.75;;;6.26;100.00
10958;BME280;5531;42.570;23.676;2023-02-28T07:44:15;92575.53;;;6.25;100.00
10958;BME280;5531;42.570;23.676;2023-02-28T07:46:52;92579.63;;;6.28;100.00
10958;BME280;5531;42.570;23.676;2023-02-28T07:49:27;92578.81;;;6.27;100.00
10958;BME280;5531;42.570;23.676;2023-02-28T07:51:57;92578.16;;;6.25;100.00
10958;BME280;5531;42.570;23.676;2023-02-28T07:54:26;92579.91;;;6.16;100.00
10958;BME280;5531;42.570;23.676;2023-02-28T07:56:55;92578.88;;;6.09;100.00
10958;BME280;5531;42.570;23.676;2023-02-28T07:59:27;92577.66;;;5.95;100.00
10958;BME280;5531;42.570;23.676;2023-02-28T08:01:57;92576.13;;;5.84;100.00
10958;BME280;5531;42.570;23.676;2023-02-28T08:04:26;92580.69;;;5.82;100.00
10958;BME280;5531;42.570;23.676;2023-02-28T08:06:55;92584.53;;;5.78;100.00
10958;BME280;5531;42.570;23.676;2023-02-28T08:09:24;92583.28;;;5.82;100.00
10958;BME280;5531;42.570;23.676;2023-02-28T08:11:53;92578.22;;;5.81;100.00
10958;BME280;5531;42.570;23.676;2023-02-28T08:14:22;92574.19;;;5.86;100.00
10958;BME280;5531;42.570;23.676;2023-02-28T08:16:54;92581.34;;;5.84;100.00
10958;BME280;5531;42.570;23.676;2023-02-28T08:19:23;92573.56;;;5.93;100.00
10958;BME280;5531;42.570;23.676;2023-02-28T08:21:52;92571.13;;;5.91;100.00
10958;BME280;5531;42.570;23.676;2023-02-28T08:24:21;92570.81;;;5.94;100.00
10958;BME280;5531;42.570;23.676;2023-02-28T08:26:50;92574.34;;;5.85;100.00
10958;BME280;5531;42.570;23.676;2023-02-28T08:29:19;92576.63;;;5.88;100.00
10958;BME280;5531;42.570;23.676;2023-02-28T08:31:48;92580.94;;;5.97;100.00
10958;BME280;5531;42.570;23.676;2023-02-28T08:34:20;92577.66;;;5.95;100.00
10958;BME280;5531;42.570;23.676;2023-02-28T08:36:49;92576.44;;;6.08;100.00
10958;BME280;5531;42.570;23.676;2023-02-28T08:39:18;92575.47;;;6.09;100.00
10958;BME280;5531;42.570;23.676;2023-02-28T08:41:47;92572.41;;;6.13;100.00
10958;BME280;5531;42.570;23.676;2023-02-28T08:44:16;92574.56;;;6.18;100.00
10958;BME280;5531;42.570;23.676;2023-02-28T08:46:45;92571.28;;;6.16;100.00
10958;BME280;5531;42.570;23.676;2023-02-28T08:49:14;92576.28;;;6.09;100.00
10958;BME280;5531;42.570;23.676;2023-02-28T08:51:47;92584.31;;;6.24;100.00
10958;BME280;5531;42.570;23.676;2023-02-28T08:54:16;92579.09;;;6.24;100.00
10958;BME280;5531;42.570;23.676;2023-02-28T08:56:46;92578.81;;;6.27;100.00
10958;BME280;5531;42.570;23.676;2023-02-28T08:59:15;92578.19;;;6.33;100.00
10958;BME280;5531;42.570;23.676;2023-02-28T09:01:45;92577.06;;;6.36;100.00
10958;BME280;5531;42.570;23.676;2023-02-28T09:04:14;92583.88;;;6.37;100.00
10958;BME280;5531;42.570;23.676;2023-02-28T09:06:43;92577.22;;;6.34;100.00
10958;BME280;5531;42.570;23.676;2023-02-28T09:09:17;92574.31;;;6.37;100.00
10958;BME280;5531;42.570;23.676;2023-02-28T09:11:46;92578.97;;;6.34;100.00
10958;BME280;5531;42.570;23.676;2023-02-28T09:14:15;92575.56;;;6.33;100.00
10958;BME280;5531;42.570;23.676;2023-02-28T09:16:44;92579.50;;;6.37;100.00
10958;BME280;5531;42.570;23.676;2023-02-28T09:19:13;92575.13;;;6.38;100.00
10958;BME280;5531;42.570;23.676;2023-02-28T09:21:42;92573.00;;;6.41;100.00
10958;BME280;5531;42.570;23.676;2023-02-28T09:24:11;92568.59;;;6.42;100.00
10958;BME280;5531;42.570;23.676;2023-02-28T09:26:43;92569.94;;;6.46;100.00
10958;BME280;5531;42.570;23.676;2023-02-28T09:29:12;92571.69;;;6.37;100.00
10958;BME280;5531;42.570;23.676;2023-02-28T09:31:43;92576.53;;;6.32;100.00
10958;BME280;5531;42.570;23.676;2023-02-28T09:34:12;92577.56;;;6.39;100.00
10958;BME280;5531;42.570;23.676;2023-02-28T09:36:41;92576.41;;;6.42;100.00
10958;BME280;5531;42.570;23.676;2023-02-28T09:39:10;92579.81;;;6.34;100.00
10958;BME280;5531;42.570;23.676;2023-02-28T09:41:49;92574.16;;;6.39;100.00
10958;BME280;5531;42.570;23.676;2023-02-28T09:44:24;92581.16;;;6.55;100.00
10958;BME280;5531;42.570;23.676;2023-02-28T09:46:57;92582.84;;;6.64;100.00
10958;BME280;5531;42.570;23.676;2023-02-28T09:49:34;92587.88;;;6.66;100.00
10958;BME280;5531;42.570;23.676;2023-02-28T09:52:09;92580.69;;;6.59;100.00
10958;BME280;5531;42.570;23.676;2023-02-28T09:54:39;92578.13;;;6.76;100.00
10958;BME280;5531;42.570;23.676;2023-02-28T09:57:17;92579.47;;;6.88;100.00
10958;BME280;5531;42.570;23.676;2023-02-28T09:59:56;92567.44;;;6.95;100.00
10958;BME280;5531;42.570;23.676;2023-02-28T10:03:04;92574.13;;;7.06;100.00
10958;BME280;5531;42.570;23.676;2023-02-28T10:05:38;92560.59;;;6.94;100.00
10958;BME280;5531;42.570;23.676;2023-02-28T10:08:13;92566.63;;;6.87;100.00
10958;BME280;5531;42.570;23.676;2023-02-28T10:10:45;92559.44;;;6.89;100.00
10958;BME280;5531;42.570;23.676;2023-02-28T10:13:23;92556.19;;;6.78;100.00
10958;BME280;5531;42.570;23.676;2023-02-28T10:15:56;92552.09;;;6.68;100.00
10958;BME280;5531;42.570;23.676;2023-02-28T10:18:30;92559.38;;;6.56;100.00
10958;BME280;5531;42.570;23.676;2023-02-28T10:21:00;92558.88;;;6.44;100.00
10958;BME280;5531;42.570;23.676;2023-02-28T10:23:32;92564.88;;;6.45;100.00
10958;BME280;5531;42.570;23.676;2023-02-28T10:26:11;92562.25;;;6.36;100.00
10958;BME280;5531;42.570;23.676;2023-02-28T10:28:44;92558.66;;;6.29;100.00
10958;BME280;5531;42.570;23.676;2023-02-28T10:31:17;92564.00;;;6.19;100.00
10958;BME280;5531;42.570;23.676;2023-02-28T10:33:48;92558.06;;;6.09;100.00
10958;BME280;5531;42.570;23.676;2023-02-28T10:36:19;92551.41;;;6.07;100.00
10958;BME280;5531;42.570;23.676;2023-02-28T10:38:49;92559.91;;;6.17;100.00
10958;BME280;5531;42.570;23.676;2023-02-28T10:41:29;92545.25;;;6.16;100.00
10958;BME280;5531;42.570;23.676;2023-02-28T10:44:17;92547.75;;;6.34;100.00
10958;BME280;5531;42.570;23.676;2023-02-28T10:46:49;92551.25;;;6.51;100.00
10958;BME280;5531;42.570;23.676;2023-02-28T10:49:21;92545.22;;;6.50;100.00
10958;BME280;5531;42.570;23.676;2023-02-28T10:51:52;92542.63;;;6.50;100.00
10958;BME280;5531;42.570;23.676;2023-02-28T10:54:26;92548.47;;;6.44;100.00
10958;BME280;5531;42.570;23.676;2023-02-28T10:57:15;92542.25;;;6.37;100.00
10958;BME280;5531;42.570;23.676;2023-02-28T10:59:50;92542.84;;;6.22;100.00
10958;BME280;5531;42.570;23.676;2023-02-28T11:02:32;92531.25;;;6.09;100.00
10958;BME280;5531;42.570;23.676;2023-02-28T11:05:02;92531.75;;;6.12;100.00
10958;BME280;5531;42.570;23.676;2023-02-28T11:07:31;92528.50;;;6.10;100.00
10958;BME280;5531;42.570;23.676;2023-02-28T11:10:00;92519.06;;;6.09;100.00
10958;BME280;5531;42.570;23.676;2023-02-28T11:12:37;92517.00;;;6.21;100.00
10958;BME280;5531;42.570;23.676;2023-02-28T11:15:22;92519.28;;;6.24;100.00
10958;BME280;5531;42.570;23.676;2023-02-28T11:17:57;92517.16;;;6.19;100.00
10958;BME280;5531;42.570;23.676;2023-02-28T11:20:29;92518.13;;;6.18;100.00
10958;BME280;5531;42.570;23.676;2023-02-28T11:23:00;92515.84;;;6.15;100.00
10958;BME280;5531;42.570;23.676;2023-02-28T11:25:32;92507.66;;;6.02;100.00
10958;BME280;5531;42.570;23.676;2023-02-28T11:28:03;92508.63;;;6.01;100.00
10958;BME280;5531;42.570;23.676;2023-02-28T11:30:38;92507.84;;;6.09;100.00
10958;BME280;5531;42.570;23.676;2023-02-28T11:33:22;92512.91;;;6.10;100.00
10958;BME280;5531;42.570;23.676;2023-02-28T11:35:52;92507.69;;;6.10;100.00
10958;BME280;5531;42.570;23.676;2023-02-28T11:38:26;92512.94;;;6.27;100.00
10958;BME280;5531;42.570;23.676;2023-02-28T11:41:08;92511.84;;;6.29;100.00
10958;BME280;5531;42.570;23.676;2023-02-28T11:43:50;92510.47;;;6.17;100.00
10958;BME280;5531;42.570;23.676;2023-02-28T11:46:32;92510.19;;;6.28;100.00
10958;BME280;5531;42.570;23.676;2023-02-28T11:49:14;92507.28;;;6.31;100.00
10958;BME280;5531;42.570;23.676;2023-02-28T11:51:53;92500.09;;;6.25;100.00
10958;BME280;5531;42.570;23.676;2023-02-28T11:54:35;92495.69;;;6.26;100.00
10958;BME280;5531;42.570;23.676;2023-02-28T11:57:20;92498.59;;;6.14;100.00
10958;BME280;5531;42.570;23.676;2023-02-28T12:00:03;92504.13;;;6.11;100.00
10958;BME280;5531;42.570;23.676;2023-02-28T12:02:53;92499.72;;;6.03;100.00
10958;BME280;5531;42.570;23.676;2023-02-28T12:05:29;92498.75;;;6.13;100.00
10958;BME280;5531;42.570;23.676;2023-02-28T12:08:17;92501.56;;;6.19;100.00
10958;BME280;5531;42.570;23.676;2023-02-28T12:11:00;92503.13;;;6.04;100.00
10958;BME280;5531;42.570;23.676;2023-02-28T12:13:41;92491.41;;;6.00;100.00
10958;BME280;5531;42.570;23.676;2023-02-28T12:16:30;92486.56;;;6.05;100.00
10958;BME280;5531;42.570;23.676;2023-02-28T12:19:19;92499.88;;;6.02;100.00
10958;BME280;5531;42.570;23.676;2023-02-28T12:22:12;92492.09;;;6.10;100.00
10958;BME280;5531;42.570;23.676;2023-02-28T12:27:49;92488.41;;;6.21;100.00
10958;BME280;5531;42.570;23.676;2023-02-28T12:30:22;92487.91;;;6.26;100.00
10958;BME280;5531;42.570;23.676;2023-02-28T12:32:55;92487.25;;;6.23;100.00
10958;BME280;5531;42.570;23.676;2023-02-28T12:35:33;92483.69;;;6.33;100.00
10958;BME280;5531;42.570;23.676;2023-02-28T12:38:08;92485.00;;;6.37;100.00
10958;BME280;5531;42.570;23.676;2023-02-28T12:40:44;92487.59;;;6.29;100.00
10958;BME280;5531;42.570;23.676;2023-02-28T12:43:16;92472.78;;;6.21;100.00
10958;BME280;5531;42.570;23.676;2023-02-28T12:45:51;92478.50;;;6.33;100.00
10958;BME280;5531;42.570;23.676;2023-02-28T12:48:25;92473.31;;;6.41;100.00
10958;BME280;5531;42.570;23.676;2023-02-28T12:50:59;92477.19;;;6.37;100.00
10958;BME280;5531;42.570;23.676;2023-02-28T12:53:35;92472.81;;;6.37;100.00
10958;BME280;5531;42.570;23.676;2023-02-28T12:56:13;92472.66;;;6.31;100.00
10958;BME280;5531;42.570;23.676;2023-02-28T12:58:48;92481.91;;;6.33;100.00
10958;BME280;5531;42.570;23.676;2023-02-28T13:01:42;92470.81;;;6.15;100.00
10958;BME280;5531;42.570;23.676;2023-02-28T13:04:42;92470.00;;;6.22;100.00
10958;BME280;5531;42.570;23.676;2023-02-28T13:07:49;92467.25;;;6.32;100.00
10958;BME280;5531;42.570;23.676;2023-02-28T13:10:22;92470.38;;;6.44;100.00
10958;BME280;5531;42.570;23.676;2023-02-28T13:12:54;92460.94;;;6.43;100.00
10958;BME280;5531;42.570;23.676;2023-02-28T13:15:25;92462.41;;;6.37;100.00
10958;BME280;5531;42.570;23.676;2023-02-28T13:17:56;92459.94;;;6.28;100.00
10958;BME280;5531;42.570;23.676;2023-02-28T13:20:33;92454.91;;;6.34;100.00
10958;BME280;5531;42.570;23.676;2023-02-28T13:23:38;92459.78;;;6.29;100.00
10958;BME280;5531;42.570;23.676;2023-02-28T13:26:11;92454.75;;;6.28;100.00
10958;BME280;5531;42.570;23.676;2023-02-28T13:29:27;92454.28;;;6.40;100.00
10958;BME280;5531;42.570;23.676;2023-02-28T13:35:34;92455.25;;;6.31;100.00
10958;BME280;5531;42.570;23.676;2023-02-28T13:38:21;92456.03;;;6.32;100.00
10958;BME280;5531;42.570;23.676;2023-02-28T13:40:51;92454.91;;;6.26;100.00
10958;BME280;5531;42.570;23.676;2023-02-28T13:43:20;92445.16;;;6.28;100.00
10958;BME280;5531;42.570;23.676;2023-02-28T13:46:08;92440.72;;;6.12;100.00